TimeCDT,TemperatureF,Dew PointF,Humidity,Sea Level PressureIn,VisibilityMPH,Wind Direction,Wind SpeedMPH,Gust SpeedMPH,PrecipitationIn,Events,Conditions,WindDirDegrees,DateUTC
12:21 AM,50.0,46.4,87,30.22,9.0,North,9.2,-,N/A,,Overcast,10,2012-10-08 05:21:00
12:25 AM,48.2,46.4,93,30.22,9.0,North,9.2,-,N/A,,Overcast,10,2012-10-08 05:25:00
12:43 AM,48.2,46.4,93,30.23,7.0,North,6.9,-,N/A,,Overcast,10,2012-10-08 05:43:00
12:49 AM,48.2,46.4,93,30.23,6.0,North,8.1,-,N/A,,Overcast,360,2012-10-08 05:49:00
12:53 AM,48.2,46.4,93,30.22,7.0,NNE,6.9,-,N/A,,Overcast,20,2012-10-08 05:53:00
12:55 AM,48.6,46.8,93,30.22,8.0,NNE,5.8,-,N/A,,Overcast,20,2012-10-08 05:55:00
12:57 AM,48.2,46.4,93,30.22,8.0,NNE,5.8,-,N/A,,Overcast,20,2012-10-08 05:57:00
1:00 AM,48.2,46.4,93,30.23,10.0,North,8.1,-,N/A,,Overcast,10,2012-10-08 06:00:00
1:03 AM,48.2,46.4,93,30.23,10.0,North,5.8,-,N/A,,Overcast,10,2012-10-08 06:03:00
1:06 AM,48.2,46.4,93,30.23,10.0,North,6.9,-,N/A,,Overcast,10,2012-10-08 06:06:00
1:12 AM,48.2,46.4,93,30.23,10.0,North,5.8,-,N/A,,Overcast,10,2012-10-08 06:12:00
1:15 AM,48.2,46.4,93,30.23,10.0,North,8.1,-,N/A,,Overcast,10,2012-10-08 06:15:00
1:17 AM,48.2,46.4,93,30.23,10.0,North,8.1,-,N/A,,Overcast,10,2012-10-08 06:17:00
1:25 AM,48.2,46.4,93,30.23,10.0,NNE,6.9,-,N/A,,Overcast,20,2012-10-08 06:25:00
1:27 AM,48.2,46.4,93,30.23,10.0,NNE,5.8,-,N/A,,Overcast,20,2012-10-08 06:27:00
1:29 AM,48.2,46.4,93,30.23,10.0,North,5.8,-,N/A,,Overcast,10,2012-10-08 06:29:00
1:55 AM,48.4,46.9,95,30.23,10.0,NNE,5.8,-,N/A,,Mostly Cloudy,20,2012-10-08 06:55:00
1:56 AM,48.2,46.4,93,30.23,10.0,NNE,5.8,-,N/A,,Mostly Cloudy,20,2012-10-08 06:56:00
1:57 AM,48.2,46.4,93,30.23,10.0,NNE,5.8,-,N/A,,Mostly Cloudy,30,2012-10-08 06:57:00
2:02 AM,48.2,46.4,93,30.23,10.0,NNE,4.6,-,N/A,,Mostly Cloudy,30,2012-10-08 07:02:00
2:07 AM,48.2,46.4,93,30.23,10.0,NNE,5.8,-,N/A,,Mostly Cloudy,30,2012-10-08 07:07:00
2:13 AM,48.2,46.4,93,30.24,10.0,NNE,4.6,-,N/A,,Mostly Cloudy,20,2012-10-08 07:13:00
2:16 AM,48.2,46.4,93,30.24,10.0,NNE,4.6,-,N/A,,Mostly Cloudy,20,2012-10-08 07:16:00
2:19 AM,48.2,46.4,93,30.23,10.0,NNE,4.6,-,N/A,,Mostly Cloudy,30,2012-10-08 07:19:00
2:27 AM,48.2,46.4,93,30.23,10.0,NNE,4.6,-,N/A,,Mostly Cloudy,20,2012-10-08 07:27:00
2:51 AM,48.2,46.4,93,30.23,10.0,NNE,3.5,-,N/A,,Overcast,30,2012-10-08 07:51:00
2:55 AM,48.2,46.6,94,30.22,10.0,NE,4.6,-,N/A,,Overcast,40,2012-10-08 07:55:00
3:11 AM,48.2,46.4,93,30.22,10.0,NNE,3.5,-,N/A,,Overcast,30,2012-10-08 08:11:00
3:26 AM,48.2,46.4,93,30.22,10.0,NNE,4.6,-,N/A,,Overcast,20,2012-10-08 08:26:00
3:50 AM,48.2,46.4,93,30.22,10.0,NE,3.5,-,N/A,,Overcast,50,2012-10-08 08:50:00
3:55 AM,48.4,46.8,94,30.22,10.0,ENE,3.5,-,N/A,,Overcast,60,2012-10-08 08:55:00
4:13 AM,48.2,46.4,93,30.22,10.0,North,3.5,-,N/A,,Overcast,10,2012-10-08 09:13:00
4:22 AM,48.2,46.4,93,30.22,10.0,NE,3.5,-,N/A,,Overcast,40,2012-10-08 09:22:00
4:33 AM,48.2,46.4,93,30.22,10.0,NE,3.5,-,N/A,,Overcast,40,2012-10-08 09:33:00
4:34 AM,48.2,46.4,93,30.22,10.0,NE,3.5,-,N/A,,Overcast,40,2012-10-08 09:34:00
4:46 AM,48.2,46.4,93,30.22,10.0,North,3.5,-,N/A,,Overcast,10,2012-10-08 09:46:00
4:50 AM,48.2,46.4,93,30.22,10.0,North,3.5,-,N/A,,Overcast,10,2012-10-08 09:50:00
4:55 AM,48.4,46.4,93,30.22,10.0,NNE,4.6,-,N/A,,Overcast,20,2012-10-08 09:55:00
5:05 AM,48.2,46.4,93,30.22,10.0,Calm,Calm,-,N/A,,Overcast,0,2012-10-08 10:05:00
5:09 AM,48.2,46.4,93,30.22,10.0,Calm,Calm,-,N/A,,Overcast,0,2012-10-08 10:09:00
5:31 AM,48.2,46.4,93,30.22,10.0,Calm,Calm,-,N/A,,Overcast,0,2012-10-08 10:31:00
5:32 AM,48.2,46.4,93,30.22,10.0,Calm,Calm,-,N/A,,Overcast,0,2012-10-08 10:32:00
5:36 AM,48.2,46.4,93,30.22,10.0,Calm,Calm,-,N/A,,Overcast,0,2012-10-08 10:36:00
5:55 AM,48.6,46.6,93,30.22,10.0,NE,3.5,-,N/A,,Overcast,50,2012-10-08 10:55:00
6:55 AM,48.2,45.5,90,30.24,10.0,NNE,3.5,-,N/A,,Overcast,30,2012-10-08 11:55:00
7:55 AM,47.8,44.8,89,30.25,10.0,NNE,3.5,-,N/A,,Overcast,20,2012-10-08 12:55:00
8:55 AM,49.5,44.8,84,30.27,10.0,Variable,4.6,-,N/A,,Overcast,0,2012-10-08 13:55:00
9:55 AM,53.2,43.9,71,30.28,10.0,ENE,3.5,-,N/A,,Clear,70,2012-10-08 14:55:00
10:52 AM,55.4,42.8,63,30.28,10.0,Variable,5.8,-,N/A,,Mostly Cloudy,0,2012-10-08 15:52:00
10:55 AM,56.5,43.3,61,30.28,10.0,Variable,5.8,-,N/A,,Mostly Cloudy,0,2012-10-08 15:55:00
11:31 AM,55.4,42.8,63,30.27,10.0,Variable,5.8,-,N/A,,Scattered Clouds,0,2012-10-08 16:31:00
11:55 AM,57.9,42.3,56,30.26,10.0,Variable,6.9,-,N/A,,Clear,0,2012-10-08 16:55:00
12:55 PM,59.9,42.6,53,30.24,10.0,East,6.9,-,N/A,,Partly Cloudy,90,2012-10-08 17:55:00
1:55 PM,60.3,41.4,50,30.20,10.0,North,8.1,-,N/A,,Mostly Cloudy,350,2012-10-08 18:55:00
2:55 PM,63.0,43.3,49,30.18,10.0,East,4.6,-,N/A,,Mostly Cloudy,90,2012-10-08 19:55:00
3:55 PM,61.7,42.8,50,30.17,10.0,Calm,Calm,-,N/A,,Scattered Clouds,0,2012-10-08 20:55:00
4:55 PM,62.6,42.6,48,30.15,10.0,Calm,Calm,-,N/A,,Mostly Cloudy,0,2012-10-08 21:55:00
5:55 PM,61.2,43.5,52,30.14,10.0,ENE,3.5,-,N/A,,Clear,70,2012-10-08 22:55:00
6:55 PM,55.8,45.5,68,30.14,10.0,ESE,3.5,-,N/A,,Clear,110,2012-10-08 23:55:00
7:55 PM,52.2,45.0,76,30.15,10.0,East,3.5,-,N/A,,Clear,100,2012-10-09 00:55:00
8:55 PM,49.6,44.8,83,30.16,10.0,ESE,3.5,-,N/A,,Clear,120,2012-10-09 01:55:00
9:55 PM,46.2,43.7,91,30.17,10.0,Calm,Calm,-,N/A,,Clear,0,2012-10-09 02:55:00
10:55 PM,48.0,45.3,90,30.17,10.0,Calm,Calm,-,N/A,,Clear,0,2012-10-09 03:55:00
11:55 PM,46.2,44.6,94,30.15,10.0,Calm,Calm,-,N/A,,Clear,0,2012-10-09 04:55:00